Time;durP1;ratioP1;P1;durP2;ratioP2;P2;SDS_P1;SDS_P2;PMS_P1;PMS_P2;Temp;Humidity;BMP_temperature;BMP_pressure;BME280_temperature;BME280_humidity;BME280_pressure;Samples;Min_cycle;Max_cycle;Signal;HPM_P1;HPM_P2
2023/03/07 00:01:37;;;;;;;19.10;9.55;;;;;;;;;;5016432;28;20021;-80
2023/03/07 00:04:03;;;;;;;17.30;9.75;;;;;;;;;;5000766;28;20034;-80
2023/03/07 00:06:29;;;;;;;18.75;9.48;;;;;;;;;;5030716;28;20049;-80
2023/03/07 00:08:57;;;;;;;17.23;9.40;;;;;;;;;;5028689;28;20030;-79
2023/03/07 00:11:23;;;;;;;17.08;9.48;;;;;;;;;;5022094;28;20026;-79
2023/03/07 00:13:49;;;;;;;18.70;9.00;;;;;;;;;;5009168;28;20038;-80
2023/03/07 00:16:16;;;;;;;17.60;8.43;;;;;;;;;;5006717;28;20038;-80
2023/03/07 00:18:42;;;;;;;18.90;9.40;;;;;;;;;;5017516;28;20030;-80
2023/03/07 00:21:10;;;;;;;16.95;9.50;;;;;;;;;;5017521;28;20017;-80
2023/03/07 00:23:37;;;;;;;17.73;9.77;;;;;;;;;;5018198;28;20033;-80
2023/03/07 00:26:05;;;;;;;17.27;9.55;;;;;;;;;;5001594;28;20027;-80
2023/03/07 00:28:31;;;;;;;18.52;9.70;;;;;;;;;;4999103;28;20125;-80
2023/03/07 00:31:04;;;;;;;18.60;8.80;;;;;;;;;;5001326;28;20073;-80
2023/03/07 00:33:30;;;;;;;16.50;8.70;;;;;;;;;;4998597;28;20035;-81
2023/03/07 00:36:11;;;;;;;18.70;9.88;;;;;;;;;;5004779;28;20100;-80
2023/03/07 00:38:37;;;;;;;17.63;9.10;;;;;;;;;;5017440;28;20089;-80
2023/03/07 00:41:03;;;;;;;16.35;7.95;;;;;;;;;;5000597;28;20028;-80
2023/03/07 00:43:29;;;;;;;18.88;9.48;;;;;;;;;;4998503;28;20029;-81
2023/03/07 00:45:55;;;;;;;22.00;9.93;;;;;;;;;;5004850;28;20071;-80
2023/03/07 00:48:21;;;;;;;15.50;8.82;;;;;;;;;;5001624;28;20054;-80
2023/03/07 00:50:47;;;;;;;16.92;8.98;;;;;;;;;;5014900;28;20057;-80
2023/03/07 00:53:13;;;;;;;17.80;9.35;;;;;;;;;;5017371;28;20030;-80
2023/03/07 00:55:40;;;;;;;18.38;9.82;;;;;;;;;;5004939;28;20049;-80
2023/03/07 00:58:06;;;;;;;17.20;8.27;;;;;;;;;;4998133;28;20074;-81
2023/03/07 01:00:32;;;;;;;19.65;8.02;;;;;;;;;;4995974;28;20118;-80
2023/03/07 01:03:00;;;;;;;18.17;9.07;;;;;;;;;;4997593;28;20031;-80
2023/03/07 01:05:27;;;;;;;17.67;8.52;;;;;;;;;;5007566;28;20022;-80
2023/03/07 01:07:53;;;;;;;15.38;8.35;;;;;;;;;;5010280;28;20042;-80
2023/03/07 01:10:19;;;;;;;18.98;8.23;;;;;;;;;;4997913;28;20434;-80
2023/03/07 01:12:45;;;;;;;19.85;10.02;;;;;;;;;;4999592;28;20027;-81
2023/03/07 01:15:12;;;;;;;15.88;9.20;;;;;;;;;;5010443;28;20121;-81
2023/03/07 01:17:37;;;;;;;18.13;10.02;;;;;;;;;;5015251;28;20018;-80
2023/03/07 01:20:05;;;;;;;18.55;9.30;;;;;;;;;;5018447;28;20037;-80
2023/03/07 01:22:32;;;;;;;19.30;9.75;;;;;;;;;;5011579;28;20034;-80
2023/03/07 01:24:58;;;;;;;18.05;10.02;;;;;;;;;;5004062;28;20033;-81
2023/03/07 01:27:24;;;;;;;18.50;8.85;;;;;;;;;;5014126;28;20024;-80
2023/03/07 01:29:50;;;;;;;18.95;9.40;;;;;;;;;;4997397;28;20079;-80
2023/03/07 01:32:16;;;;;;;17.83;8.30;;;;;;;;;;5011865;28;20230;-81
2023/03/07 01:34:42;;;;;;;16.33;8.57;;;;;;;;;;5010862;28;20075;-81
2023/03/07 01:37:08;;;;;;;17.92;8.23;;;;;;;;;;4999250;28;20056;-81
2023/03/07 01:39:34;;;;;;;18.80;9.45;;;;;;;;;;4997965;28;20465;-81
2023/03/07 01:42:00;;;;;;;17.42;9.48;;;;;;;;;;5008642;28;20026;-81
2023/03/07 01:44:26;;;;;;;19.55;8.77;;;;;;;;;;5014743;28;20025;-81
2023/03/07 01:46:54;;;;;;;21.73;10.15;;;;;;;;;;5008376;28;20038;-80
2023/03/07 01:49:35;;;;;;;17.25;8.20;;;;;;;;;;5005849;28;20034;-80
2023/03/07 01:52:02;;;;;;;14.55;8.40;;;;;;;;;;4997373;28;20145;-80
2023/03/07 01:54:29;;;;;;;16.65;7.80;;;;;;;;;;5002243;28;20030;-80
2023/03/07 01:56:55;;;;;;;21.13;9.98;;;;;;;;;;5011007;28;20061;-81
2023/03/07 01:59:25;;;;;;;16.92;9.00;;;;;;;;;;5006253;28;20030;-80
2023/03/07 02:01:51;;;;;;;20.00;9.45;;;;;;;;;;4995575;28;20028;-81
2023/03/07 02:04:28;;;;;;;18.55;9.68;;;;;;;;;;5001148;28;20053;-81
2023/03/07 02:06:54;;;;;;;19.35;9.23;;;;;;;;;;5016952;28;20036;-81
2023/03/07 02:09:21;;;;;;;18.83;9.23;;;;;;;;;;5018658;28;20037;-81
2023/03/07 02:11:48;;;;;;;18.70;8.45;;;;;;;;;;5022834;28;20022;-81
2023/03/07 02:14:14;;;;;;;20.15;10.18;;;;;;;;;;5015966;28;20010;-79
2023/03/07 02:16:40;;;;;;;17.65;9.20;;;;;;;;;;5014663;28;20010;-79
2023/03/07 02:19:16;;;;;;;20.98;10.45;;;;;;;;;;5004109;28;20042;-81
2023/03/07 02:22:02;;;;;;;19.98;10.10;;;;;;;;;;5016130;28;20026;-80
2023/03/07 02:24:54;;;;;;;17.23;8.82;;;;;;;;;;5008446;28;20394;-81
2023/03/07 02:27:21;;;;;;;20.67;10.07;;;;;;;;;;4994995;28;20117;-81
2023/03/07 02:29:47;;;;;;;19.55;9.75;;;;;;;;;;5005474;28;20498;-80
2023/03/07 02:32:13;;;;;;;19.08;10.32;;;;;;;;;;5010361;28;20022;-80
2023/03/07 02:34:39;;;;;;;17.08;9.80;;;;;;;;;;5002437;28;20022;-80
2023/03/07 02:37:18;;;;;;;17.73;9.52;;;;;;;;;;5016054;28;20072;-81
2023/03/07 02:39:46;;;;;;;19.88;10.00;;;;;;;;;;5006961;28;20552;-81
2023/03/07 02:42:23;;;;;;;22.65;10.77;;;;;;;;;;4998850;28;20464;-81
2023/03/07 02:44:59;;;;;;;19.25;9.68;;;;;;;;;;5008876;28;20442;-80
2023/03/07 02:47:25;;;;;;;18.50;9.77;;;;;;;;;;4998126;28;20055;-80
2023/03/07 02:49:51;;;;;;;18.83;10.15;;;;;;;;;;4996320;28;20023;-80
2023/03/07 02:52:18;;;;;;;19.40;10.10;;;;;;;;;;4995657;28;20453;-80
2023/03/07 02:54:44;;;;;;;17.02;8.90;;;;;;;;;;4998300;28;20030;-80
2023/03/07 02:57:10;;;;;;;21.50;11.13;;;;;;;;;;4996145;28;20034;-80
2023/03/07 02:59:36;;;;;;;23.52;10.75;;;;;;;;;;4995877;28;20023;-80
2023/03/07 03:02:02;;;;;;;20.38;10.63;;;;;;;;;;4994172;28;20034;-81
2023/03/07 03:04:28;;;;;;;17.63;8.80;;;;;;;;;;5000521;28;20140;-80
2023/03/07 03:06:55;;;;;;;18.30;10.10;;;;;;;;;;5010208;28;20066;-81
2023/03/07 03:09:21;;;;;;;18.85;9.02;;;;;;;;;;5014427;28;20080;-80
2023/03/07 03:11:47;;;;;;;17.55;8.85;;;;;;;;;;4995959;28;20110;-81
2023/03/07 03:14:13;;;;;;;18.65;9.73;;;;;;;;;;4997090;28;20049;-80
2023/03/07 03:16:40;;;;;;;19.80;10.48;;;;;;;;;;4999193;28;20022;-80
2023/03/07 03:19:06;;;;;;;18.55;9.75;;;;;;;;;;4999533;28;20088;-81
2023/03/07 03:24:45;;;;;;;19.77;10.73;;;;;;;;;;5015832;28;20040;-81
2023/03/07 03:27:11;;;;;;;18.13;10.00;;;;;;;;;;4998895;28;20403;-81
2023/03/07 03:29:37;;;;;;;15.88;9.38;;;;;;;;;;5000797;28;20023;-81
2023/03/07 03:32:03;;;;;;;18.55;9.98;;;;;;;;;;4998871;28;20163;-81
2023/03/07 03:34:29;;;;;;;18.45;9.80;;;;;;;;;;5000922;28;20041;-81
2023/03/07 03:36:55;;;;;;;16.02;9.57;;;;;;;;;;5004565;28;20457;-80
2023/03/07 03:39:21;;;;;;;21.05;10.25;;;;;;;;;;5008512;28;20073;-81
2023/03/07 03:41:47;;;;;;;20.33;10.55;;;;;;;;;;5017514;28;20068;-80
2023/03/07 03:44:13;;;;;;;18.15;10.00;;;;;;;;;;5008556;28;20030;-81
2023/03/07 03:46:39;;;;;;;19.33;9.80;;;;;;;;;;4997963;28;20534;-81
2023/03/07 03:52:09;;;;;;;16.63;8.55;;;;;;;;;;4999384;28;20068;-80
2023/03/07 03:54:35;;;;;;;20.75;9.25;;;;;;;;;;5017182;28;20097;-81
2023/03/07 03:57:01;;;;;;;17.55;9.70;;;;;;;;;;5006276;28;20033;-81
2023/03/07 03:59:27;;;;;;;18.80;8.98;;;;;;;;;;5018296;28;20026;-80
2023/03/07 04:01:53;;;;;;;16.30;8.93;;;;;;;;;;5016327;28;20397;-80
2023/03/07 04:04:21;;;;;;;18.52;9.00;;;;;;;;;;5000406;28;20018;-80
2023/03/07 04:06:47;;;;;;;21.67;9.63;;;;;;;;;;5008209;28;20068;-81
2023/03/07 04:09:14;;;;;;;17.15;9.73;;;;;;;;;;5022551;28;20029;-81
2023/03/07 04:11:40;;;;;;;20.48;9.85;;;;;;;;;;5024127;28;20397;-80
2023/03/07 04:14:06;;;;;;;19.20;10.27;;;;;;;;;;5015932;28;20030;-81
2023/03/07 04:16:32;;;;;;;21.25;9.52;;;;;;;;;;5008591;28;20048;-81
2023/03/07 04:18:58;;;;;;;19.50;10.45;;;;;;;;;;5017539;28;20044;-81
2023/03/07 04:21:24;;;;;;;21.88;11.15;;;;;;;;;;5019212;28;20029;-81
2023/03/07 04:23:54;;;;;;;20.23;10.38;;;;;;;;;;5015761;28;20029;-81
2023/03/07 04:26:20;;;;;;;17.67;9.82;;;;;;;;;;5014799;28;20026;-80
2023/03/07 04:28:48;;;;;;;19.58;10.15;;;;;;;;;;5013812;28;20030;-81
2023/03/07 04:31:24;;;;;;;22.98;10.32;;;;;;;;;;4997476;28;20048;-80
2023/03/07 04:33:50;;;;;;;21.52;11.43;;;;;;;;;;5011359;28;20029;-80
2023/03/07 04:36:17;;;;;;;23.27;10.75;;;;;;;;;;5008486;28;20034;-80
2023/03/07 04:38:43;;;;;;;21.45;9.77;;;;;;;;;;5005443;28;20180;-81
2023/03/07 04:41:14;;;;;;;22.90;10.85;;;;;;;;;;5018033;28;20084;-80
2023/03/07 04:43:40;;;;;;;21.73;9.93;;;;;;;;;;5008042;28;20489;-80
2023/03/07 04:46:07;;;;;;;19.15;10.18;;;;;;;;;;5014102;28;20109;-80
2023/03/07 04:48:33;;;;;;;19.35;10.63;;;;;;;;;;4997216;28;20050;-81
2023/03/07 04:50:59;;;;;;;20.80;10.50;;;;;;;;;;4998500;28;20326;-81
2023/03/07 04:53:25;;;;;;;18.48;11.55;;;;;;;;;;5000392;28;20030;-80
2023/03/07 04:55:56;;;;;;;18.25;10.38;;;;;;;;;;4999315;28;20030;-81
2023/03/07 04:58:22;;;;;;;18.25;10.70;;;;;;;;;;5010800;28;20120;-81
2023/03/07 05:00:48;;;;;;;22.15;10.95;;;;;;;;;;5010837;28;20667;-80
2023/03/07 05:03:14;;;;;;;18.30;10.25;;;;;;;;;;4998081;28;20023;-80
2023/03/07 05:05:40;;;;;;;20.00;10.75;;;;;;;;;;5014872;28;20029;-81
2023/03/07 05:08:06;;;;;;;20.35;10.07;;;;;;;;;;5017071;28;20493;-80
2023/03/07 05:10:33;;;;;;;19.00;10.40;;;;;;;;;;5017379;28;20276;-80
2023/03/07 05:12:59;;;;;;;21.08;11.20;;;;;;;;;;5007747;28;20030;-81
2023/03/07 05:15:25;;;;;;;21.05;11.18;;;;;;;;;;5009879;28;20038;-81
2023/03/07 05:17:51;;;;;;;19.27;10.95;;;;;;;;;;5009385;28;20061;-81
2023/03/07 05:20:18;;;;;;;23.20;11.90;;;;;;;;;;4996936;28;20080;-80
2023/03/07 05:22:44;;;;;;;26.92;12.43;;;;;;;;;;4997794;28;20446;-81
2023/03/07 05:25:10;;;;;;;22.38;11.30;;;;;;;;;;5008116;28;20049;-81
2023/03/07 05:27:36;;;;;;;21.92;11.05;;;;;;;;;;5008907;28;20034;-81
2023/03/07 05:30:02;;;;;;;24.00;12.75;;;;;;;;;;5001278;28;20033;-81
2023/03/07 05:32:29;;;;;;;25.33;11.23;;;;;;;;;;4999873;28;20026;-81
2023/03/07 05:34:55;;;;;;;20.80;10.57;;;;;;;;;;5008895;28;20032;-81
2023/03/07 05:37:21;;;;;;;24.85;12.70;;;;;;;;;;5003139;28;20041;-81
2023/03/07 05:39:47;;;;;;;23.27;12.27;;;;;;;;;;5016055;28;20486;-80
2023/03/07 05:42:14;;;;;;;21.52;10.55;;;;;;;;;;5010434;28;20042;-81
2023/03/07 05:44:40;;;;;;;24.70;12.30;;;;;;;;;;4999065;28;20022;-80
2023/03/07 05:47:06;;;;;;;23.85;11.93;;;;;;;;;;5005198;28;20046;-80
2023/03/07 05:49:32;;;;;;;18.85;11.95;;;;;;;;;;5020268;28;20049;-79
2023/03/07 05:51:58;;;;;;;23.02;12.07;;;;;;;;;;5022589;28;20137;-80
2023/03/07 05:54:24;;;;;;;20.55;11.25;;;;;;;;;;5006334;28;20050;-81
2023/03/07 05:56:50;;;;;;;21.30;11.98;;;;;;;;;;5002167;28;21211;-80
2023/03/07 05:59:16;;;;;;;21.95;11.38;;;;;;;;;;5001836;28;20042;-81
2023/03/07 06:01:42;;;;;;;21.90;10.48;;;;;;;;;;5003699;28;20027;-81
2023/03/07 06:04:09;;;;;;;18.48;11.38;;;;;;;;;;5009377;28;20030;-80
2023/03/07 06:06:35;;;;;;;21.42;11.85;;;;;;;;;;5008360;28;20037;-82
2023/03/07 06:09:02;;;;;;;23.15;12.20;;;;;;;;;;5011096;28;20148;-81
2023/03/07 06:11:28;;;;;;;19.63;11.88;;;;;;;;;;5003251;28;20539;-81
2023/03/07 06:13:54;;;;;;;17.88;11.20;;;;;;;;;;5006340;28;20046;-81
2023/03/07 06:16:20;;;;;;;18.38;10.45;;;;;;;;;;5010575;28;20118;-81
2023/03/07 06:18:46;;;;;;;20.85;10.98;;;;;;;;;;5004709;28;21078;-81
2023/03/07 06:21:14;;;;;;;21.38;13.70;;;;;;;;;;5005998;28;20026;-81
2023/03/07 06:23:41;;;;;;;28.95;15.88;;;;;;;;;;5002924;28;20029;-81
2023/03/07 06:26:07;;;;;;;25.20;14.25;;;;;;;;;;5000656;28;20045;-81
2023/03/07 06:28:33;;;;;;;28.17;15.38;;;;;;;;;;5002022;28;20105;-81
2023/03/07 06:30:59;;;;;;;22.20;11.95;;;;;;;;;;5000471;28;20058;-81
2023/03/07 06:33:26;;;;;;;26.27;13.80;;;;;;;;;;4998000;28;20026;-81
2023/03/07 06:35:51;;;;;;;27.98;15.00;;;;;;;;;;4999541;28;20030;-81
2023/03/07 06:38:18;;;;;;;25.55;11.98;;;;;;;;;;5004145;28;20025;-80
2023/03/07 06:40:44;;;;;;;22.77;13.23;;;;;;;;;;5007689;28;20040;-81
2023/03/07 06:43:10;;;;;;;25.17;13.02;;;;;;;;;;5016279;28;20069;-81
2023/03/07 06:45:36;;;;;;;25.60;12.90;;;;;;;;;;4999980;28;20113;-81
2023/03/07 06:48:03;;;;;;;29.33;12.73;;;;;;;;;;4998209;28;20042;-81
2023/03/07 06:50:29;;;;;;;24.67;12.88;;;;;;;;;;5007560;28;20026;-81
2023/03/07 06:52:55;;;;;;;26.88;11.90;;;;;;;;;;5007238;28;20494;-81
2023/03/07 06:55:21;;;;;;;24.52;11.55;;;;;;;;;;5008403;28;20035;-81
2023/03/07 06:57:47;;;;;;;26.42;11.77;;;;;;;;;;5001163;28;20054;-81
2023/03/07 07:00:13;;;;;;;24.17;11.10;;;;;;;;;;5005780;28;20027;-81
2023/03/07 07:02:39;;;;;;;23.63;11.57;;;;;;;;;;5005709;28;20030;-81
2023/03/07 07:05:05;;;;;;;26.02;13.13;;;;;;;;;;5012516;28;20030;-81
2023/03/07 07:07:31;;;;;;;24.48;12.45;;;;;;;;;;5007825;28;20015;-80
2023/03/07 07:09:57;;;;;;;28.15;13.73;;;;;;;;;;5020256;28;20053;-80
2023/03/07 07:12:23;;;;;;;22.40;11.82;;;;;;;;;;5022292;28;20053;-80
2023/03/07 07:14:49;;;;;;;21.70;10.73;;;;;;;;;;5024980;28;20121;-81
2023/03/07 07:17:15;;;;;;;23.65;13.15;;;;;;;;;;5011553;28;20178;-81
2023/03/07 07:19:41;;;;;;;21.60;10.70;;;;;;;;;;5022339;28;20068;-81
2023/03/07 07:22:10;;;;;;;21.73;11.07;;;;;;;;;;5025873;28;20084;-81
2023/03/07 07:24:37;;;;;;;20.85;10.93;;;;;;;;;;5018508;28;20156;-81
2023/03/07 07:27:03;;;;;;;22.08;10.88;;;;;;;;;;5017595;28;20541;-80
2023/03/07 07:29:29;;;;;;;24.10;11.13;;;;;;;;;;5005323;28;20029;-81
2023/03/07 07:31:55;;;;;;;21.88;10.65;;;;;;;;;;5000633;28;20109;-81
2023/03/07 07:34:21;;;;;;;21.40;12.18;;;;;;;;;;5000057;28;20026;-81
2023/03/07 07:36:47;;;;;;;20.77;11.40;;;;;;;;;;5002080;28;20034;-81
2023/03/07 07:39:14;;;;;;;19.42;10.65;;;;;;;;;;5001209;28;20030;-81
2023/03/07 07:41:40;;;;;;;15.82;9.50;;;;;;;;;;5011965;28;20022;-80
2023/03/07 07:44:06;;;;;;;20.35;10.98;;;;;;;;;;5017804;28;20018;-80
2023/03/07 07:46:32;;;;;;;19.85;10.63;;;;;;;;;;5021755;28;20048;-80
2023/03/07 07:48:58;;;;;;;20.60;10.55;;;;;;;;;;5028960;28;20613;-81
2023/03/07 07:51:24;;;;;;;20.70;10.68;;;;;;;;;;5018854;28;20092;-82
2023/03/07 07:53:50;;;;;;;19.10;10.65;;;;;;;;;;5015179;28;20030;-81
2023/03/07 07:56:16;;;;;;;18.17;10.15;;;;;;;;;;5005738;28;20033;-81
2023/03/07 07:58:42;;;;;;;19.85;10.48;;;;;;;;;;5006733;28;20082;-81
2023/03/07 08:01:15;;;;;;;30.42;16.10;;;;;;;;;;5005798;28;20030;-81
2023/03/07 08:03:42;;;;;;;23.75;12.55;;;;;;;;;;5009896;28;20081;-82
2023/03/07 08:06:08;;;;;;;31.02;16.00;;;;;;;;;;5007069;28;20037;-81
2023/03/07 08:08:34;;;;;;;31.67;18.42;;;;;;;;;;5018587;28;20025;-81
2023/03/07 08:11:00;;;;;;;21.88;12.52;;;;;;;;;;5008889;28;20034;-81
2023/03/07 08:13:27;;;;;;;20.02;10.55;;;;;;;;;;5007407;28;20469;-81
2023/03/07 08:15:53;;;;;;;15.82;9.55;;;;;;;;;;5009361;28;20422;-81
2023/03/07 08:18:19;;;;;;;15.80;9.80;;;;;;;;;;5014598;28;20088;-81
2023/03/07 08:20:45;;;;;;;16.48;8.48;;;;;;;;;;5000018;28;20022;-81
2023/03/07 08:23:11;;;;;;;15.27;9.32;;;;;;;;;;5013268;28;20041;-81
2023/03/07 08:25:38;;;;;;;16.40;8.60;;;;;;;;;;5001219;28;20018;-81
2023/03/07 08:28:04;;;;;;;19.85;9.82;;;;;;;;;;5008665;28;20053;-80
2023/03/07 08:30:31;;;;;;;16.05;10.13;;;;;;;;;;5010749;28;20084;-81
2023/03/07 08:32:58;;;;;;;16.65;9.40;;;;;;;;;;5002086;28;20021;-81
2023/03/07 08:35:25;;;;;;;15.75;9.85;;;;;;;;;;5002653;28;20060;-82
2023/03/07 08:37:54;;;;;;;17.08;10.13;;;;;;;;;;5013261;28;20053;-81
2023/03/07 08:40:20;;;;;;;18.00;10.57;;;;;;;;;;5001741;28;20030;-81
2023/03/07 08:42:46;;;;;;;23.38;10.02;;;;;;;;;;5017024;28;20036;-82
2023/03/07 08:45:13;;;;;;;18.75;9.50;;;;;;;;;;5007314;28;20038;-81
2023/03/07 08:47:39;;;;;;;18.35;11.10;;;;;;;;;;5000673;28;20053;-81
2023/03/07 08:50:06;;;;;;;17.88;9.45;;;;;;;;;;5003317;28;20421;-82
2023/03/07 08:52:32;;;;;;;17.60;9.43;;;;;;;;;;4998144;28;20188;-82
2023/03/07 08:54:58;;;;;;;18.38;9.95;;;;;;;;;;5010918;28;20057;-81
2023/03/07 08:57:24;;;;;;;18.85;10.77;;;;;;;;;;4997055;28;20414;-81
2023/03/07 08:59:50;;;;;;;16.35;10.02;;;;;;;;;;5013194;28;20042;-81
2023/03/07 09:02:16;;;;;;;16.40;9.35;;;;;;;;;;4998192;28;20035;-81
2023/03/07 09:04:42;;;;;;;22.02;10.88;;;;;;;;;;5017847;28;20050;-81
2023/03/07 09:07:08;;;;;;;17.90;11.07;;;;;;;;;;4998542;28;20030;-82
2023/03/07 09:09:34;;;;;;;14.57;8.45;;;;;;;;;;5014903;28;20033;-81
2023/03/07 09:12:00;;;;;;;16.02;9.55;;;;;;;;;;5001111;28;20113;-81
2023/03/07 09:14:26;;;;;;;16.02;9.10;;;;;;;;;;4999282;28;20028;-81
2023/03/07 09:16:52;;;;;;;17.30;9.48;;;;;;;;;;5015579;28;20010;-81
2023/03/07 09:19:18;;;;;;;17.63;9.75;;;;;;;;;;5017948;28;20029;-80
2023/03/07 09:21:44;;;;;;;18.15;9.45;;;;;;;;;;4999007;28;20064;-81
2023/03/07 09:24:10;;;;;;;17.70;9.60;;;;;;;;;;5012641;28;20033;-81
2023/03/07 09:26:36;;;;;;;16.83;9.95;;;;;;;;;;5015277;28;20492;-81
2023/03/07 09:29:02;;;;;;;17.75;9.40;;;;;;;;;;5005732;28;20026;-81
2023/03/07 09:31:28;;;;;;;22.30;10.25;;;;;;;;;;4999002;28;20030;-81
2023/03/07 09:33:56;;;;;;;17.67;9.32;;;;;;;;;;5006338;28;20040;-82
2023/03/07 09:36:21;;;;;;;16.25;10.40;;;;;;;;;;5005439;28;20038;-81
2023/03/07 09:38:48;;;;;;;17.33;8.98;;;;;;;;;;5009978;28;20030;-81
2023/03/07 09:41:32;;;;;;;17.35;9.77;;;;;;;;;;5013574;28;20038;-81
2023/03/07 09:44:01;;;;;;;18.40;10.25;;;;;;;;;;5016455;28;20386;-82
2023/03/07 09:46:40;;;;;;;20.08;9.35;;;;;;;;;;4997913;28;20027;-82
2023/03/07 09:49:17;;;;;;;16.98;10.45;;;;;;;;;;5010718;28;20099;-82
2023/03/07 09:51:44;;;;;;;17.42;10.40;;;;;;;;;;5016580;28;20504;-82
2023/03/07 09:54:16;;;;;;;17.77;9.15;;;;;;;;;;5016720;28;20058;-81
2023/03/07 09:56:45;;;;;;;17.67;9.27;;;;;;;;;;5016545;28;20022;-83
2023/03/07 09:59:15;;;;;;;16.23;9.25;;;;;;;;;;5000976;28;20060;-82
2023/03/07 10:01:42;;;;;;;16.25;8.70;;;;;;;;;;4997521;28;20190;-82
2023/03/07 10:04:14;;;;;;;12.55;7.75;;;;;;;;;;5009218;28;20026;-81
2023/03/07 10:06:41;;;;;;;16.95;10.05;;;;;;;;;;5003725;28;20404;-82
2023/03/07 10:09:12;;;;;;;18.42;9.88;;;;;;;;;;5014819;28;20030;-82
2023/03/07 10:11:50;;;;;;;14.48;8.98;;;;;;;;;;4998830;28;20034;-82
2023/03/07 10:14:35;;;;;;;15.80;8.60;;;;;;;;;;5002743;28;20026;-81
2023/03/07 10:17:19;;;;;;;11.68;6.43;;;;;;;;;;5003660;28;20037;-82
2023/03/07 10:19:53;;;;;;;10.77;5.90;;;;;;;;;;5003210;28;20129;-81
2023/03/07 10:22:35;;;;;;;11.55;6.85;;;;;;;;;;5005822;28;20066;-81
2023/03/07 10:25:13;;;;;;;12.25;7.18;;;;;;;;;;5013993;28;20076;-81
2023/03/07 10:27:39;;;;;;;14.60;6.05;;;;;;;;;;5004529;28;20340;-80
2023/03/07 10:30:11;;;;;;;13.65;6.57;;;;;;;;;;5008245;28;20033;-81
2023/03/07 10:32:47;;;;;;;14.48;6.95;;;;;;;;;;5015522;28;20031;-78
2023/03/07 10:35:19;;;;;;;11.85;6.78;;;;;;;;;;5016887;28;20492;-81
2023/03/07 10:37:54;;;;;;;12.40;7.43;;;;;;;;;;5014913;28;20030;-81
2023/03/07 10:40:30;;;;;;;12.98;7.63;;;;;;;;;;5004209;28;20030;-82
2023/03/07 10:42:56;;;;;;;12.75;6.70;;;;;;;;;;4999527;28;20069;-82
2023/03/07 10:45:22;;;;;;;14.30;7.80;;;;;;;;;;5013931;28;20475;-81
2023/03/07 10:47:48;;;;;;;13.50;7.20;;;;;;;;;;5013984;28;20049;-81
2023/03/07 10:50:21;;;;;;;12.35;6.80;;;;;;;;;;5010631;28;20030;-80
2023/03/07 10:52:47;;;;;;;;;;;;;;;;;;4996761;28;20872;-81
2023/03/07 10:55:33;;;;;;;11.45;6.68;;;;;;;;;;5000732;28;20113;-82
2023/03/07 10:58:13;;;;;;;13.10;6.78;;;;;;;;;;5001360;28;20060;-81
2023/03/07 11:00:40;;;;;;;11.73;6.63;;;;;;;;;;5015015;28;20029;-81
2023/03/07 11:03:21;;;;;;;13.25;7.25;;;;;;;;;;5015774;28;20049;-82
2023/03/07 11:05:48;;;;;;;13.57;7.95;;;;;;;;;;4997400;28;20037;-82
2023/03/07 11:08:24;;;;;;;15.75;8.70;;;;;;;;;;5008808;28;20464;-82
2023/03/07 11:10:50;;;;;;;15.02;8.20;;;;;;;;;;5015772;28;20033;-82
2023/03/07 11:13:20;;;;;;;17.90;8.75;;;;;;;;;;5008723;28;20019;-82
2023/03/07 11:15:47;;;;;;;14.73;8.55;;;;;;;;;;5007493;28;20021;-82
2023/03/07 11:18:38;;;;;;;15.32;8.77;;;;;;;;;;5002433;28;20556;-82
2023/03/07 11:21:04;;;;;;;16.63;8.35;;;;;;;;;;4996645;28;20688;-82
2023/03/07 11:23:30;;;;;;;15.75;8.75;;;;;;;;;;4998779;28;20090;-82
2023/03/07 11:26:12;;;;;;;14.38;8.63;;;;;;;;;;4996516;28;20078;-82
2023/03/07 11:28:39;;;;;;;13.80;7.60;;;;;;;;;;5011304;28;20469;-81
2023/03/07 11:31:11;;;;;;;15.23;7.40;;;;;;;;;;5015570;28;20431;-82
2023/03/07 11:33:37;;;;;;;15.07;8.65;;;;;;;;;;5006458;28;20023;-81
2023/03/07 11:36:08;;;;;;;12.88;7.30;;;;;;;;;;4998710;28;20509;-80
2023/03/07 11:38:34;;;;;;;14.18;8.35;;;;;;;;;;5013938;28;20049;-83
2023/03/07 11:41:00;;;;;;;18.15;9.20;;;;;;;;;;5018985;28;20026;-83
2023/03/07 11:43:45;;;;;;;13.30;8.52;;;;;;;;;;5018464;28;20052;-82
2023/03/07 11:46:20;;;;;;;16.67;8.57;;;;;;;;;;5018411;28;20026;-83
2023/03/07 11:48:46;;;;;;;15.77;8.82;;;;;;;;;;5002952;28;20121;-83
2023/03/07 11:51:25;;;;;;;14.40;8.80;;;;;;;;;;4999291;28;20068;-83
2023/03/07 11:54:07;;;;;;;14.95;8.10;;;;;;;;;;5006468;28;20038;-83
2023/03/07 11:56:35;;;;;;;14.20;8.70;;;;;;;;;;5000221;28;20030;-81
2023/03/07 11:59:01;;;;;;;16.52;9.27;;;;;;;;;;5006141;28;20069;-81
2023/03/07 12:01:30;;;;;;;16.55;9.07;;;;;;;;;;5011778;28;20030;-82
2023/03/07 12:03:56;;;;;;;16.70;9.35;;;;;;;;;;5010656;28;20494;-82
2023/03/07 12:06:34;;;;;;;17.67;8.60;;;;;;;;;;5002651;28;20022;-82
2023/03/07 12:09:18;;;;;;;14.80;8.13;;;;;;;;;;5017770;28;20021;-82
2023/03/07 12:11:52;;;;;;;15.25;8.32;;;;;;;;;;5001700;28;20026;-83
2023/03/07 12:14:37;;;;;;;17.77;9.60;;;;;;;;;;5013217;28;20034;-83
2023/03/07 12:17:23;;;;;;;16.38;9.13;;;;;;;;;;5016659;28;20033;-82
2023/03/07 12:19:49;;;;;;;18.20;9.00;;;;;;;;;;5006107;28;20411;-82
2023/03/07 12:22:53;;;;;;;17.02;8.73;;;;;;;;;;5005836;28;20061;-83
2023/03/07 12:25:28;;;;;;;16.48;9.63;;;;;;;;;;4981176;28;20034;-82
2023/03/07 12:28:00;;;;;;;19.55;8.25;;;;;;;;;;4983275;28;20038;-83
2023/03/07 12:30:46;;;;;;;15.20;8.98;;;;;;;;;;4987386;28;20034;-82
2023/03/07 12:33:32;;;;;;;14.85;9.10;;;;;;;;;;4996935;28;20034;-82
2023/03/07 12:36:02;;;;;;;14.55;8.48;;;;;;;;;;5017075;28;20018;-82
2023/03/07 12:38:34;;;;;;;16.40;8.50;;;;;;;;;;5017743;28;20109;-82
2023/03/07 12:41:09;;;;;;;14.73;7.85;;;;;;;;;;5025092;28;20029;-81
2023/03/07 12:43:46;;;;;;;13.23;7.53;;;;;;;;;;5021718;28;20037;-80
2023/03/07 12:46:15;;;;;;;15.55;9.05;;;;;;;;;;5021122;28;20030;-83
2023/03/07 12:48:44;;;;;;;14.23;7.90;;;;;;;;;;5000249;28;20173;-83
2023/03/07 12:51:13;;;;;;;13.10;7.30;;;;;;;;;;5001526;28;20042;-82
2023/03/07 12:53:47;;;;;;;12.63;7.47;;;;;;;;;;5006792;28;20053;-82
2023/03/07 12:56:32;;;;;;;9.85;5.85;;;;;;;;;;5007781;28;20033;-82
2023/03/07 12:59:02;;;;;;;12.20;6.35;;;;;;;;;;5006039;28;20038;-83
2023/03/07 13:01:28;;;;;;;10.05;5.82;;;;;;;;;;5002872;28;20038;-82
2023/03/07 13:04:05;;;;;;;9.63;5.80;;;;;;;;;;5009284;28;20075;-81
2023/03/07 13:06:31;;;;;;;13.57;5.75;;;;;;;;;;5032210;28;20387;-82
2023/03/07 13:08:59;;;;;;;11.48;5.70;;;;;;;;;;5018628;28;20076;-81
2023/03/07 13:11:26;;;;;;;10.45;5.63;;;;;;;;;;5017377;28;20459;-81
2023/03/07 13:13:52;;;;;;;11.00;5.65;;;;;;;;;;5015033;28;20084;-81
2023/03/07 13:16:31;;;;;;;10.52;5.97;;;;;;;;;;5007976;28;20029;-83
2023/03/07 13:19:24;;;;;;;9.48;5.22;;;;;;;;;;5016740;28;20030;-83
2023/03/07 13:21:50;;;;;;;10.07;6.47;;;;;;;;;;4997555;28;20042;-82
2023/03/07 13:24:42;;;;;;;13.23;6.40;;;;;;;;;;4997282;28;20517;-84
2023/03/07 13:27:14;;;;;;;12.05;6.25;;;;;;;;;;5011872;28;20409;-83
2023/03/07 13:30:03;;;;;;;11.52;6.60;;;;;;;;;;5017700;28;20022;-81
2023/03/07 13:32:51;;;;;;;11.20;6.63;;;;;;;;;;4995992;28;20062;-82
2023/03/07 13:35:29;;;;;;;11.52;7.18;;;;;;;;;;5020861;28;20018;-82
2023/03/07 13:37:58;;;;;;;13.95;6.93;;;;;;;;;;5004669;28;20034;-82
2023/03/07 13:40:24;;;;;;;11.38;6.53;;;;;;;;;;4997930;28;20058;-82
2023/03/07 13:42:50;;;;;;;11.63;6.63;;;;;;;;;;5000743;28;20034;-83
2023/03/07 13:45:35;;;;;;;14.50;7.85;;;;;;;;;;5017608;28;20076;-81
2023/03/07 13:48:01;;;;;;;14.27;6.95;;;;;;;;;;5016385;28;20531;-84
2023/03/07 13:50:33;;;;;;;12.50;6.95;;;;;;;;;;5007108;28;20082;-82
2023/03/07 13:53:14;;;;;;;14.65;7.03;;;;;;;;;;5003981;28;20506;-84
2023/03/07 13:55:45;;;;;;;11.50;7.05;;;;;;;;;;5023266;28;20101;-81
2023/03/07 13:58:23;;;;;;;12.60;7.28;;;;;;;;;;5026326;28;20034;-81
2023/03/07 14:00:51;;;;;;;12.93;7.32;;;;;;;;;;5017403;28;20113;-80
2023/03/07 14:03:26;;;;;;;11.27;6.38;;;;;;;;;;5010505;28;20061;-82
2023/03/07 14:05:52;;;;;;;12.45;6.07;;;;;;;;;;4998645;28;20486;-82
2023/03/07 14:08:21;;;;;;;12.52;5.57;;;;;;;;;;5001865;28;20033;-84
2023/03/07 14:10:47;;;;;;;12.15;5.60;;;;;;;;;;4999990;28;20161;-83
2023/03/07 14:13:22;;;;;;;10.27;5.90;;;;;;;;;;4998176;28;20058;-82
2023/03/07 14:16:07;;;;;;;11.63;6.85;;;;;;;;;;5012471;28;20026;-82
2023/03/07 14:18:40;;;;;;;10.07;5.93;;;;;;;;;;5006522;28;20552;-80
2023/03/07 14:21:12;;;;;;;8.98;5.25;;;;;;;;;;5010208;28;20038;-82
2023/03/07 14:23:38;;;;;;;10.55;5.20;;;;;;;;;;5008120;28;20113;-81
2023/03/07 14:26:32;;;;;;;9.25;6.00;;;;;;;;;;5019454;28;20033;-81
2023/03/07 14:28:58;;;;;;;;;;;;;;;;;;4999827;28;20445;-82
2023/03/07 14:31:42;;;;;;;9.00;4.68;;;;;;;;;;5024526;28;19932;-83
2023/03/07 14:34:22;;;;;;;9.80;4.40;;;;;;;;;;5003975;28;20039;-80
2023/03/07 14:36:49;;;;;;;9.10;4.55;;;;;;;;;;4997870;28;20042;-82
2023/03/07 14:39:16;;;;;;;9.07;4.57;;;;;;;;;;5011473;28;20026;-83
2023/03/07 14:41:54;;;;;;;8.32;5.05;;;;;;;;;;4998635;28;20538;-83
2023/03/07 14:44:36;;;;;;;10.00;4.60;;;;;;;;;;4998171;28;20053;-81